Terminal Aerodrome Forecast
Issued by NWS

Home | Current Version | Previous Version | Graphics & Text | Print | Product List | Glossary On
Versions: 1 2 3 4 5 6 7 8 9 10 11 12 13 14 15 16 17 18 19 20
000
FTUS43 KBIS 282300
TAFJMS
TAF
KJMS 282334Z 2900/2924 03011KT P6SM SCT006 BKN012 OVC050
     FM290200 03012KT 3SM BR SCT002 OVC006
     FM291600 08011KT P6SM SCT006 BKN015=

USA.gov is the U.S. government's official web portal to all federal, state and local government web resources and services.